Time;durP1;ratioP1;P1;durP2;ratioP2;P2;SDS_P1;SDS_P2;PMS_P1;PMS_P2;Temp;Humidity;BMP_temperature;BMP_pressure;BME280_temperature;BME280_humidity;BME280_pressure;Samples;Min_cycle;Max_cycle;Signal;HPM_P1;HPM_P2
2022/09/22 00:01:36;;;;;;;;;;;;;;;;;;4994608;28;19922;-88
2022/09/22 00:04:05;;;;;;;;;;;;;;;;;;4994920;28;19918;-90
2022/09/22 00:06:39;;;;;;;;;;;;;;;;;;4994927;28;19933;-88
2022/09/22 00:09:05;;;;;;;;;;;;;;;;;;4977471;28;19977;-87
2022/09/22 00:11:35;;;;;;;;;;;;;;;;;;4994637;28;19973;-92
2022/09/22 00:14:05;;;;;;;;;;;;;;;;;;4994463;28;19968;-91
2022/09/22 00:16:36;;;;;;;;;;;;;;;;;;4976987;28;20378;-89
2022/09/22 00:19:03;;;;;;;;;;;;;;;;;;4993483;28;20391;-90
2022/09/22 00:21:29;;;;;;;;;;;;;;;;;;4993457;28;19921;-91
2022/09/22 00:23:55;;;;;;;;;;;;;;;;;;4976700;28;20337;-91
2022/09/22 00:26:21;;;;;;;;;;;;;;;;;;4994460;28;20025;-89
2022/09/22 00:28:47;;;;;;;;;;;;;;;;;;4994082;28;20020;-88
2022/09/22 00:31:19;;;;;;;;;;;;;;;;;;4994262;28;19918;-92
2022/09/22 00:33:45;;;;;;;;;;;;;;;;;;4976755;28;20281;-89
2022/09/22 00:36:10;;;;;;;;;;;;;;;;;;4994292;28;19937;-90
2022/09/22 00:38:36;;;;;;;;;;;;;;;;;;4975823;28;19979;-90
2022/09/22 00:41:03;;;;;;;;;;;;;;;;;;4976374;28;20492;-90
2022/09/22 00:43:31;;;;;;;;;;;;;;;;;;4994057;28;19924;-90
2022/09/22 00:46:02;;;;;;;;;;;;;;;;;;4994124;28;19922;-89
2022/09/22 00:48:30;;;;;;;;;;;;;;;;;;4976830;28;19922;-91
2022/09/22 00:50:57;;;;;;;;;;;;;;;;;;4976591;28;19917;-90
2022/09/22 00:53:23;;;;;;;;;;;;;;;;;;4993824;28;19918;-91
2022/09/22 00:55:52;;;;;;;;;;;;;;;;;;4976418;28;19929;-91
2022/09/22 00:58:20;;;;;;;;;;;;;;;;;;4993109;28;19925;-90
2022/09/22 01:00:46;;;;;;;;;;;;;;;;;;4993316;28;20009;-92
2022/09/22 01:03:13;;;;;;;;;;;;;;;;;;4976384;28;20524;-93
2022/09/22 01:05:40;;;;;;;;;;;;;;;;;;4993187;28;20020;-92
2022/09/22 01:08:06;;;;;;;;;;;;;;;;;;4992755;28;19964;-89
2022/09/22 01:10:31;;;;;;;;;;;;;;;;;;4993022;28;20399;-90
2022/09/22 01:13:15;;;;;;;;;;;;;;;;;;4993088;28;19969;-88
2022/09/22 01:15:43;;;;;;;;;;;;;;;;;;4993337;28;19918;-92
2022/09/22 01:18:21;;;;;;;;;;;;;;;;;;4992975;28;19917;-92
2022/09/22 01:20:50;;;;;;;;;;;;;;;;;;4993128;28;20034;-92
2022/09/22 01:23:34;;;;;;;;;;;;;;;;;;4993547;28;20384;-85
2022/09/22 01:26:15;;;;;;;;;;;;;;;;;;4993673;28;19924;-83
2022/09/22 01:29:09;;;;;;;;;;;;;;;;;;4993672;28;20309;-84
2022/09/22 01:31:44;;;;;;;;;;;;;;;;;;4976440;28;20329;-89
2022/09/22 01:34:21;;;;;;;;;;;;;;;;;;4995876;28;19968;-84
2022/09/22 01:36:49;;;;;;;;;;;;;;;;;;4979829;28;19918;-83
2022/09/22 01:39:27;;;;;;;;;;;;;;;;;;4978849;28;19924;-85
2022/09/22 01:41:57;;;;;;;;;;;;;;;;;;4997162;28;20009;-85
2022/09/22 01:44:33;;;;;;;;;;;;;;;;;;4979780;28;19918;-83
2022/09/22 01:47:10;;;;;;;;;;;;;;;;;;4997190;28;19917;-90
2022/09/22 01:49:38;;;;;;;;;;;;;;;;;;4979729;28;19922;-89
2022/09/22 01:52:08;;;;;;;;;;;;;;;;;;4997146;28;19957;-91
2022/09/22 01:54:42;;;;;;;;;;;;;;;;;;4997069;28;19944;-87
2022/09/22 01:57:20;;;;;;;;;;;;;;;;;;4997049;28;19922;-90
2022/09/22 01:59:49;;;;;;;;;;;;;;;;;;4996043;28;19918;-86
2022/09/22 02:02:41;;;;;;;;;;;;;;;;;;4979173;28;19917;-87
2022/09/22 02:05:09;;;;;;;;;;;;;;;;;;4993713;28;19918;-91
2022/09/22 02:07:36;;;;;;;;;;;;;;;;;;4996850;28;19922;-88
2022/09/22 02:10:04;;;;;;;;;;;;;;;;;;4979348;28;19922;-90
2022/09/22 02:12:29;;;;;;;;;;;;;;;;;;4996753;28;19972;-90
2022/09/22 02:14:55;;;;;;;;;;;;;;;;;;4979256;28;20000;-87
2022/09/22 02:17:20;;;;;;;;;;;;;;;;;;4996675;28;19918;-91
2022/09/22 02:19:46;;;;;;;;;;;;;;;;;;4995753;28;19925;-91
2022/09/22 02:22:11;;;;;;;;;;;;;;;;;;4978984;28;19918;-91
2022/09/22 02:24:41;;;;;;;;;;;;;;;;;;4996680;28;19926;-92
2022/09/22 02:27:09;;;;;;;;;;;;;;;;;;4996385;28;19917;-91
2022/09/22 02:29:38;;;;;;;;;;;;;;;;;;4996456;28;19922;-91
2022/09/22 02:32:06;;;;;;;;;;;;;;;;;;4996597;28;19917;-93
2022/09/22 02:34:32;;;;;;;;;;;;;;;;;;4996754;28;19917;-91
2022/09/22 02:37:12;;;;;;;;;;;;;;;;;;4979500;28;19922;-91
2022/09/22 02:39:44;;;;;;;;;;;;;;;;;;4995484;28;19925;-92
2022/09/22 02:42:27;;;;;;;;;;;;;;;;;;4996193;28;19989;-91
2022/09/22 02:45:05;;;;;;;;;;;;;;;;;;4995126;28;20406;-91
2022/09/22 02:47:33;;;;;;;;;;;;;;;;;;4982611;28;19918;-89
2022/09/22 02:49:59;;;;;;;;;;;;;;;;;;4993974;28;19921;-90
2022/09/22 02:52:25;;;;;;;;;;;;;;;;;;5013151;28;19921;-91
2022/09/22 02:54:51;;;;;;;;;;;;;;;;;;5014005;28;20016;-92
2022/09/22 02:57:17;;;;;;;;;;;;;;;;;;4990678;28;20289;-90
2022/09/22 02:59:42;;;;;;;;;;;;;;;;;;4996334;28;19914;-89
2022/09/22 03:02:08;;;;;;;;;;;;;;;;;;4996609;28;19918;-88
2022/09/22 03:04:33;;;;;;;;;;;;;;;;;;4996399;28;19917;-87
2022/09/22 03:06:59;;;;;;;;;;;;;;;;;;4978763;28;20369;-90
2022/09/22 03:09:24;;;;;;;;;;;;;;;;;;4978698;28;20466;-91
2022/09/22 03:11:50;;;;;;;;;;;;;;;;;;4996341;28;20340;-91
2022/09/22 03:14:15;;;;;;;;;;;;;;;;;;4978625;28;19976;-91
2022/09/22 03:16:40;;;;;;;;;;;;;;;;;;4962553;28;19917;-88
2022/09/22 03:19:06;;;;;;;;;;;;;;;;;;4977762;28;20305;-85
2022/09/22 03:21:31;;;;;;;;;;;;;;;;;;4978047;28;19918;-91
2022/09/22 03:23:57;;;;;;;;;;;;;;;;;;4995893;28;19929;-85
2022/09/22 03:26:22;;;;;;;;;;;;;;;;;;4978257;28;19918;-87
2022/09/22 03:28:47;;;;;;;;;;;;;;;;;;4995481;28;20392;-83
2022/09/22 03:31:13;;;;;;;;;;;;;;;;;;4995981;28;20381;-85
2022/09/22 03:33:38;;;;;;;;;;;;;;;;;;4995395;28;19918;-84
2022/09/22 03:36:07;;;;;;;;;;;;;;;;;;4994256;28;19922;-85
2022/09/22 03:38:32;;;;;;;;;;;;;;;;;;4994835;28;19924;-88
2022/09/22 03:41:00;;;;;;;;;;;;;;;;;;4994565;28;19918;-85
2022/09/22 03:43:31;;;;;;;;;;;;;;;;;;4994945;28;19972;-85
2022/09/22 03:45:57;;;;;;;;;;;;;;;;;;4995027;28;19918;-84
2022/09/22 03:48:23;;;;;;;;;;;;;;;;;;4995101;28;19976;-90
2022/09/22 03:50:48;;;;;;;;;;;;;;;;;;4995009;28;19921;-89
2022/09/22 03:53:14;;;;;;;;;;;;;;;;;;4994876;28;19972;-85
2022/09/22 03:55:39;;;;;;;;;;;;;;;;;;4976329;28;19973;-87
2022/09/22 03:58:05;;;;;;;;;;;;;;;;;;4994833;28;19925;-88
2022/09/22 04:00:30;;;;;;;;;;;;;;;;;;4995437;28;19918;-87
2022/09/22 04:02:57;;;;;;;;;;;;;;;;;;4978987;28;19986;-90
2022/09/22 04:05:22;;;;;;;;;;;;;;;;;;4996938;28;19918;-87
2022/09/22 04:07:48;;;;;;;;;;;;;;;;;;4994968;28;19941;-87
2022/09/22 04:10:13;;;;;;;;;;;;;;;;;;4996331;28;19925;-88
2022/09/22 04:12:38;;;;;;;;;;;;;;;;;;4994652;28;20041;-88
2022/09/22 04:15:05;;;;;;;;;;;;;;;;;;4995417;28;19928;-89
2022/09/22 04:17:30;;;;;;;;;;;;;;;;;;4994494;28;19929;-86
2022/09/22 04:19:56;;;;;;;;;;;;;;;;;;4993656;28;19918;-85
2022/09/22 04:22:21;;;;;;;;;;;;;;;;;;4995475;28;19918;-87
2022/09/22 04:24:47;;;;;;;;;;;;;;;;;;4994465;28;19922;-87
2022/09/22 04:27:12;;;;;;;;;;;;;;;;;;4994494;28;20378;-86
2022/09/22 04:29:37;;;;;;;;;;;;;;;;;;4995379;28;20346;-87
2022/09/22 04:32:03;;;;;;;;;;;;;;;;;;4987989;28;20016;-86
2022/09/22 04:34:28;;;;;;;;;;;;;;;;;;4983144;28;20013;-88
2022/09/22 04:36:54;;;;;;;;;;;;;;;;;;4974736;28;19918;-89
2022/09/22 04:39:19;;;;;;;;;;;;;;;;;;4984163;28;19917;-87
2022/09/22 04:41:45;;;;;;;;;;;;;;;;;;4974689;28;20372;-87
2022/09/22 04:44:10;;;;;;;;;;;;;;;;;;4974286;28;20013;-88
2022/09/22 04:46:35;;;;;;;;;;;;;;;;;;4974668;28;20382;-90
2022/09/22 04:49:01;;;;;;;;;;;;;;;;;;4979737;28;20373;-87
2022/09/22 04:51:26;;;;;;;;;;;;;;;;;;4971394;28;20294;-86
2022/09/22 04:53:52;;;;;;;;;;;;;;;;;;4977691;28;19974;-91
2022/09/22 04:56:17;;;;;;;;;;;;;;;;;;4995251;28;19926;-90
2022/09/22 04:58:43;;;;;;;;;;;;;;;;;;4970796;28;20026;-90
2022/09/22 05:01:08;;;;;;;;;;;;;;;;;;4972796;28;20352;-91
2022/09/22 05:03:36;;;;;;;;;;;;;;;;;;4965659;28;19925;-90
2022/09/22 05:06:03;;;;;;;;;;;;;;;;;;4974856;28;19973;-92
2022/09/22 05:08:28;;;;;;;;;;;;;;;;;;4974155;28;19925;-92
2022/09/22 05:10:55;;;;;;;;;;;;;;;;;;4975505;28;19922;-89
2022/09/22 05:13:21;;;;;;;;;;;;;;;;;;4985233;28;19928;-85
2022/09/22 05:15:46;;;;;;;;;;;;;;;;;;4975769;28;19918;-87
2022/09/22 05:18:12;;;;;;;;;;;;;;;;;;4974035;28;19918;-90
2022/09/22 05:20:38;;;;;;;;;;;;;;;;;;4958158;28;20282;-90
2022/09/22 05:23:05;;;;;;;;;;;;;;;;;;4984369;28;20342;-90
2022/09/22 05:25:31;;;;;;;;;;;;;;;;;;4965906;28;19988;-90
2022/09/22 05:27:56;;;;;;;;;;;;;;;;;;4984564;28;19929;-90
2022/09/22 05:30:23;;;;;;;;;;;;;;;;;;4982421;28;19922;-91
2022/09/22 05:32:49;;;;;;;;;;;;;;;;;;4988261;28;19921;-91
2022/09/22 05:35:15;;;;;;;;;;;;;;;;;;4978574;28;20293;-90
2022/09/22 05:37:48;;;;;;;;;;;;;;;;;;4967987;28;19922;-91
2022/09/22 05:40:14;;;;;;;;;;;;;;;;;;4990974;28;19918;-91
2022/09/22 05:42:43;;;;;;;;;;;;;;;;;;4983885;28;19942;-91
2022/09/22 05:45:09;;;;;;;;;;;;;;;;;;4959051;28;19918;-87
2022/09/22 05:47:34;;;;;;;;;;;;;;;;;;4973953;28;19925;-93
2022/09/22 05:50:00;;;;;;;;;;;;;;;;;;4979730;28;19918;-91
2022/09/22 05:52:25;;;;;;;;;;;;;;;;;;4968412;28;19929;-85
2022/09/22 05:54:50;;;;;;;;;;;;;;;;;;4995750;28;19918;-85
2022/09/22 05:57:16;;;;;;;;;;;;;;;;;;4981611;28;19937;-84
2022/09/22 05:59:41;;;;;;;;;;;;;;;;;;4976369;28;19926;-87
2022/09/22 06:02:07;;;;;;;;;;;;;;;;;;4964302;28;20013;-86
2022/09/22 06:04:33;;;;;;;;;;;;;;;;;;4983944;28;19922;-92
2022/09/22 06:06:59;;;;;;;;;;;;;;;;;;4979652;28;20298;-89
2022/09/22 06:09:24;;;;;;;;;;;;;;;;;;4981752;28;19918;-91
2022/09/22 06:11:50;;;;;;;;;;;;;;;;;;4966718;28;19914;-87
2022/09/22 06:14:19;;;;;;;;;;;;;;;;;;4978608;28;20289;-90
2022/09/22 06:16:46;;;;;;;;;;;;;;;;;;4980570;28;19948;-89
2022/09/22 06:19:12;;;;;;;;;;;;;;;;;;4995292;28;19917;-92
2022/09/22 06:21:37;;;;;;;;;;;;;;;;;;4981635;28;19922;-94
2022/09/22 06:24:03;;;;;;;;;;;;;;;;;;4982951;28;19921;-92
2022/09/22 06:26:28;;;;;;;;;;;;;;;;;;4996895;28;19926;-90
2022/09/22 06:28:54;;;;;;;;;;;;;;;;;;4987224;28;19921;-90
2022/09/22 06:31:23;;;;;;;;;;;;;;;;;;5005581;28;19941;-90
2022/09/22 06:33:49;;;;;;;;;;;;;;;;;;5004103;28;19918;-91
2022/09/22 06:36:22;;;;;;;;;;;;;;;;;;4988860;28;19914;-90
2022/09/22 06:38:47;;;;;;;;;;;;;;;;;;4996769;28;20073;-89
2022/09/22 06:41:12;;;;;;;;;;;;;;;;;;4978147;28;20398;-92
2022/09/22 06:43:38;;;;;;;;;;;;;;;;;;4980299;28;20016;-92
2022/09/22 06:46:03;;;;;;;;;;;;;;;;;;4983695;28;19918;-92
2022/09/22 06:48:29;;;;;;;;;;;;;;;;;;4964589;28;19990;-95
2022/09/22 06:50:54;;;;;;;;;;;;;;;;;;4987425;28;19941;-92
2022/09/22 06:53:20;;;;;;;;;;;;;;;;;;4982800;28;21442;-92
2022/09/22 06:55:46;;;;;;;;;;;;;;;;;;5015186;28;19929;-91
2022/09/22 06:58:12;;;;;;;;;;;;;;;;;;5000739;28;19917;-86
2022/09/22 07:00:40;;;;;;;;;;;;;;;;;;5002836;28;19922;-89
2022/09/22 07:03:19;;;;;;;;;;;;;;;;;;4990776;28;19922;-87
2022/09/22 07:05:59;;;;;;;;;;;;;;;;;;5002634;28;19925;-87
2022/09/22 07:08:25;;;;;;;;;;;;;;;;;;4983631;28;20025;-87
2022/09/22 07:10:55;;;;;;;;;;;;;;;;;;4998082;28;20412;-88
2022/09/22 07:13:21;;;;;;;;;;;;;;;;;;4997049;28;19968;-89
2022/09/22 07:15:47;;;;;;;;;;;;;;;;;;4978204;28;19925;-88
2022/09/22 07:18:13;;;;;;;;;;;;;;;;;;4971075;28;19921;-91
2022/09/22 07:20:39;;;;;;;;;;;;;;;;;;4997469;28;19974;-87
2022/09/22 07:23:10;;;;;;;;;;;;;;;;;;4996833;28;19913;-91
2022/09/22 07:25:36;;;;;;;;;;;;;;;;;;4988149;28;20424;-91
2022/09/22 07:28:04;;;;;;;;;;;;;;;;;;4992675;28;19921;-91
2022/09/22 07:30:30;;;;;;;;;;;;;;;;;;4979705;28;20483;-88
2022/09/22 07:32:56;;;;;;;;;;;;;;;;;;4998019;28;19921;-91
2022/09/22 07:35:22;;;;;;;;;;;;;;;;;;4981768;28;19921;-84
2022/09/22 07:37:52;;;;;;;;;;;;;;;;;;4998131;28;19922;-84
2022/09/22 07:40:17;;;;;;;;;;;;;;;;;;4985747;28;19918;-86
2022/09/22 07:42:47;;;;;;;;;;;;;;;;;;5022278;28;20043;-88
2022/09/22 07:45:16;;;;;;;;;;;;;;;;;;5004320;28;20434;-86
2022/09/22 07:50:29;;;;;;;;;;;;;;;;;;5022593;28;19929;-90
2022/09/22 07:52:54;;;;;;;;;;;;;;;;;;5019268;28;19917;-92
2022/09/22 07:55:23;;;;;;;;;;;;;;;;;;5019738;28;19944;-93
2022/09/22 07:57:53;;;;;;;;;;;;;;;;;;5019727;28;20393;-86
2022/09/22 08:00:19;;;;;;;;;;;;;;;;;;5007472;28;19942;-93
2022/09/22 08:02:49;;;;;;;;;;;;;;;;;;4999737;28;19918;-83
2022/09/22 08:05:15;;;;;;;;;;;;;;;;;;4997306;28;19969;-82
2022/09/22 08:07:42;;;;;;;;;;;;;;;;;;4998204;28;19925;-85
2022/09/22 08:10:11;;;;;;;;;;;;;;;;;;4998454;28;19928;-83
2022/09/22 08:12:38;;;;;;;;;;;;;;;;;;4999379;28;19925;-87
2022/09/22 08:15:03;;;;;;;;;;;;;;;;;;4981090;28;19922;-86
2022/09/22 08:17:29;;;;;;;;;;;;;;;;;;4982797;28;19925;-88
2022/09/22 08:19:55;;;;;;;;;;;;;;;;;;4989021;28;19914;-84
2022/09/22 08:22:21;;;;;;;;;;;;;;;;;;4989495;28;19917;-84
2022/09/22 08:24:46;;;;;;;;;;;;;;;;;;5004371;28;20395;-88
2022/09/22 08:27:12;;;;;;;;;;;;;;;;;;5005109;28;19926;-86
2022/09/22 08:29:37;;;;;;;;;;;;;;;;;;5003378;28;19961;-92
2022/09/22 08:32:02;;;;;;;;;;;;;;;;;;5001944;28;19925;-82
2022/09/22 08:34:28;;;;;;;;;;;;;;;;;;4987096;28;19929;-85
2022/09/22 08:36:54;;;;;;;;;;;;;;;;;;4984484;28;19918;-83
2022/09/22 08:39:20;;;;;;;;;;;;;;;;;;5003039;28;19918;-83
2022/09/22 08:41:48;;;;;;;;;;;;;;;;;;4999332;28;20460;-83
2022/09/22 08:44:14;;;;;;;;;;;;;;;;;;5001998;28;19918;-87
2022/09/22 08:46:42;;;;;;;;;;;;;;;;;;5002309;28;19925;-83
2022/09/22 08:52:18;;;;;;;;;;;;;;;;;;5003164;28;19945;-85
2022/09/22 08:54:47;;;;;;;;;;;;;;;;;;5000477;28;19918;-86
2022/09/22 08:57:32;;;;;;;;;;;;;;;;;;4996963;28;19946;-86
2022/09/22 09:00:06;;;;;;;;;;;;;;;;;;4994788;28;19925;-92
2022/09/22 09:02:43;;;;;;;;;;;;;;;;;;4997801;28;19945;-92
2022/09/22 09:05:27;;;;;;;;;;;;;;;;;;4997660;28;19925;-93
2022/09/22 09:07:59;;;;;;;;;;;;;;;;;;5016469;28;19921;-93
2022/09/22 09:10:33;;;;;;;;;;;;;;;;;;4985827;28;20397;-85
2022/09/22 09:13:31;;;;;;;;;;;;;;;;;;5000708;28;19917;-92
2022/09/22 09:16:15;;;;;;;;;;;;;;;;;;4964872;28;19989;-85
2022/09/22 09:18:44;;;;;;;;;;;;;;;;;;4980116;28;19922;-89
2022/09/22 09:21:13;;;;;;;;;;;;;;;;;;4980341;28;19965;-84
2022/09/22 09:23:43;;;;;;;;;;;;;;;;;;4995167;28;19928;-91
2022/09/22 09:26:12;;;;;;;;;;;;;;;;;;4998728;28;19926;-89
2022/09/22 09:28:46;;;;;;;;;;;;;;;;;;4979196;28;19926;-85
2022/09/22 09:31:20;;;;;;;;;;;;;;;;;;4996934;28;19957;-89
2022/09/22 09:34:25;;;;;;;;;;;;;;;;;;4981999;28;19949;-91
2022/09/22 09:36:54;;;;;;;;;;;;;;;;;;4918120;29;19923;-87
2022/09/22 09:39:23;;;;;;;;;;;;;;;;;;4918985;29;19925;-83
2022/09/22 09:41:49;;;;;;;;;;;;;;;;;;4920387;29;19958;-84
2022/09/22 09:44:21;;;;;;;;;;;;;;;;;;4908671;29;19927;-89
2022/09/22 09:46:52;;;;;;;;;;;;;;;;;;4908919;29;19919;-94
2022/09/22 09:49:22;;;;;;;;;;;;;;;;;;4922728;29;19919;-91
2022/09/22 09:51:48;;;;;;;;;;;;;;;;;;4909173;29;19923;-86
2022/09/22 09:54:15;;;;;;;;;;;;;;;;;;4926825;29;20022;-84
2022/09/22 09:57:00;;;;;;;;;;;;;;;;;;4929331;29;19926;-90
2022/09/22 10:02:13;;;;;;;;;;;;;;;;;;4934176;29;19928;-86
2022/09/22 10:04:40;;;;;;;;;;;;;;;;;;4940948;29;19933;-82
2022/09/22 10:07:15;;;;;;;;;;;;;;;;;;4959983;28;20016;-92
2022/09/22 10:09:41;;;;;;;;;;;;;;;;;;5004245;28;19918;-92
2022/09/22 10:12:27;;;;;;;;;;;;;;;;;;5012522;28;19918;-89
2022/09/22 10:15:00;;;;;;;;;;;;;;;;;;4998905;28;19918;-89
2022/09/22 10:17:29;;;;;;;;;;;;;;;;;;5018734;28;19917;-92
2022/09/22 10:20:19;;;;;;;;;;;;;;;;;;5018347;28;19918;-86
2022/09/22 10:23:19;;;;;;;;;;;;;;;;;;5008933;28;19965;-85
2022/09/22 10:25:45;;;;;;;;;;;;;;;;;;5000717;28;19918;-84
2022/09/22 10:28:17;;;;;;;;;;;;;;;;;;5012320;28;20084;-91
2022/09/22 10:30:45;;;;;;;;;;;;;;;;;;5019903;28;19925;-87
2022/09/22 10:33:18;;;;;;;;;;;;;;;;;;5012892;28;19945;-85
2022/09/22 10:35:46;;;;;;;;;;;;;;;;;;5016667;28;19928;-92
2022/09/22 10:38:14;;;;;;;;;;;;;;;;;;5017151;28;19902;-91
2022/09/22 10:40:40;;;;;;;;;;;;;;;;;;5013962;28;19929;-95
2022/09/22 10:43:12;;;;;;;;;;;;;;;;;;5009707;28;19924;-86
2022/09/22 10:45:44;;;;;;;;;;;;;;;;;;5009322;28;19918;-88
2022/09/22 10:48:21;;;;;;;;;;;;;;;;;;5014446;28;19973;-87
2022/09/22 10:50:47;;;;;;;;;;;;;;;;;;4989514;28;19960;-86
2022/09/22 10:53:16;;;;;;;;;;;;;;;;;;5005467;28;19932;-86
2022/09/22 10:55:53;;;;;;;;;;;;;;;;;;5000176;28;19924;-82
2022/09/22 10:58:24;;;;;;;;;;;;;;;;;;4985131;28;20266;-89
2022/09/22 11:01:19;;;;;;;;;;;;;;;;;;5014008;28;19921;-85
2022/09/22 11:03:57;;;;;;;;;;;;;;;;;;4987552;28;19922;-84
2022/09/22 11:12:18;;;;;;;;;;;;;;;;;;5005102;28;19929;-86
2022/09/22 11:15:02;;;;;;;;;;;;;;;;;;5003597;28;19921;-83
2022/09/22 11:17:30;;;;;;;;;;;;;;;;;;5005538;28;20401;-86
2022/09/22 11:20:08;;;;;;;;;;;;;;;;;;5008577;28;19917;-89
2022/09/22 11:22:52;;;;;;;;;;;;;;;;;;4990065;28;19918;-89
2022/09/22 11:25:17;;;;;;;;;;;;;;;;;;4992007;28;20400;-89
2022/09/22 11:27:55;;;;;;;;;;;;;;;;;;5009784;28;19922;-89
2022/09/22 11:31:02;;;;;;;;;;;;;;;;;;4996702;28;19921;-84
2022/09/22 11:33:30;;;;;;;;;;;;;;;;;;4941322;29;19919;-90
2022/09/22 11:36:18;;;;;;;;;;;;;;;;;;4951293;28;19919;-92
2022/09/22 11:39:08;;;;;;;;;;;;;;;;;;4950543;29;19961;-90
2022/09/22 11:41:41;;;;;;;;;;;;;;;;;;4962696;29;19923;-92
2022/09/22 11:44:19;;;;;;;;;;;;;;;;;;4951472;29;19957;-82
2022/09/22 11:46:53;;;;;;;;;;;;;;;;;;4967429;29;20025;-82
2022/09/22 11:49:33;;;;;;;;;;;;;;;;;;4964548;29;20001;-84
2022/09/22 11:52:06;;;;;;;;;;;;;;;;;;4947003;29;19918;-88
2022/09/22 11:54:48;;;;;;;;;;;;;;;;;;4941707;29;19926;-83
2022/09/22 11:57:16;;;;;;;;;;;;;;;;;;4941548;29;19961;-85
2022/09/22 11:59:50;;;;;;;;;;;;;;;;;;4942668;29;19918;-92
2022/09/22 12:02:25;;;;;;;;;;;;;;;;;;4940954;29;20022;-85
2022/09/22 12:04:54;;;;;;;;;;;;;;;;;;4942446;29;20490;-85
2022/09/22 12:07:32;;;;;;;;;;;;;;;;;;4978451;28;19918;-85
2022/09/22 12:10:03;;;;;;;;;;;;;;;;;;4988833;28;19929;-91
2022/09/22 12:12:30;;;;;;;;;;;;;;;;;;5004609;28;20302;-83
2022/09/22 12:14:57;;;;;;;;;;;;;;;;;;4987765;28;20004;-84
2022/09/22 12:17:36;;;;;;;;;;;;;;;;;;5004829;28;19942;-83
2022/09/22 12:20:05;;;;;;;;;;;;;;;;;;4996005;28;19929;-88
2022/09/22 12:22:46;;;;;;;;;;;;;;;;;;4993135;28;19919;-82
2022/09/22 12:25:12;;;;;;;;;;;;;;;;;;4966288;28;19956;-82
2022/09/22 12:27:38;;;;;;;;;;;;;;;;;;4977721;28;19973;-82
2022/09/22 12:30:08;;;;;;;;;;;;;;;;;;4995719;28;19929;-83
2022/09/22 12:32:35;;;;;;;;;;;;;;;;;;4991823;28;20013;-84
2022/09/22 12:35:01;;;;;;;;;;;;;;;;;;4994031;28;19968;-84
2022/09/22 12:37:29;;;;;;;;;;;;;;;;;;4998346;28;19926;-86
2022/09/22 12:39:55;;;;;;;;;;;;;;;;;;4996775;28;19928;-86
2022/09/22 12:42:24;;;;;;;;;;;;;;;;;;4976795;28;19921;-87
2022/09/22 12:44:52;;;;;;;;;;;;;;;;;;4981427;28;20092;-84
2022/09/22 12:47:23;;;;;;;;;;;;;;;;;;4976341;28;20211;-89
2022/09/22 12:49:54;;;;;;;;;;;;;;;;;;4976849;28;19929;-81
2022/09/22 12:52:55;;;;;;;;;;;;;;;;;;4972714;28;20597;-85
2022/09/22 12:55:24;;;;;;;;;;;;;;;;;;4986124;28;20012;-89
2022/09/22 12:57:50;;;;;;;;;;;;;;;;;;4990859;28;20377;-86
2022/09/22 13:00:22;;;;;;;;;;;;;;;;;;4987749;28;19926;-85
2022/09/22 13:02:48;;;;;;;;;;;;;;;;;;4997088;28;19937;-86
2022/09/22 13:05:26;;;;;;;;;;;;;;;;;;4999666;28;19977;-90
2022/09/22 13:07:52;;;;;;;;;;;;;;;;;;4972067;28;20370;-89
2022/09/22 13:10:24;;;;;;;;;;;;;;;;;;4974167;28;20005;-81
2022/09/22 13:13:01;;;;;;;;;;;;;;;;;;4968746;28;19937;-86
2022/09/22 13:15:36;;;;;;;;;;;;;;;;;;4976162;28;19918;-91
2022/09/22 13:18:01;;;;;;;;;;;;;;;;;;4991860;28;19922;-90
2022/09/22 13:20:27;;;;;;;;;;;;;;;;;;4984492;28;19929;-89
2022/09/22 13:22:55;;;;;;;;;;;;;;;;;;4975131;28;21007;-92
2022/09/22 13:25:22;;;;;;;;;;;;;;;;;;4971132;28;20349;-81
2022/09/22 13:27:49;;;;;;;;;;;;;;;;;;4981985;28;19922;-86
2022/09/22 13:30:14;;;;;;;;;;;;;;;;;;4965325;28;19928;-83
2022/09/22 13:32:46;;;;;;;;;;;;;;;;;;4983766;28;19922;-92
2022/09/22 13:35:38;;;;;;;;;;;;;;;;;;4992545;28;20401;-82
2022/09/22 13:38:03;;;;;;;;;;;;;;;;;;4987514;28;19961;-85
2022/09/22 13:40:31;;;;;;;;;;;;;;;;;;4965198;28;19964;-88
2022/09/22 13:42:58;;;;;;;;;;;;;;;;;;4966407;28;19929;-90
2022/09/22 13:45:25;;;;;;;;;;;;;;;;;;4983074;28;19976;-88
2022/09/22 13:47:53;;;;;;;;;;;;;;;;;;4983918;28;19936;-92
2022/09/22 13:50:20;;;;;;;;;;;;;;;;;;4983500;28;19940;-90
2022/09/22 13:52:47;;;;;;;;;;;;;;;;;;4985833;28;20372;-92
2022/09/22 13:55:32;;;;;;;;;;;;;;;;;;4983352;28;19969;-92
2022/09/22 13:57:58;;;;;;;;;;;;;;;;;;4984135;28;19937;-89
2022/09/22 14:00:26;;;;;;;;;;;;;;;;;;4985714;28;19965;-92
2022/09/22 14:02:55;;;;;;;;;;;;;;;;;;4963931;28;19932;-92
2022/09/22 14:05:23;;;;;;;;;;;;;;;;;;4984362;28;20056;-92
2022/09/22 14:07:50;;;;;;;;;;;;;;;;;;4983288;28;19943;-92
2022/09/22 14:10:17;;;;;;;;;;;;;;;;;;4983076;28;19933;-90
2022/09/22 14:12:43;;;;;;;;;;;;;;;;;;4966504;28;20305;-88
2022/09/22 14:15:27;;;;;;;;;;;;;;;;;;4983905;28;19929;-89
2022/09/22 14:17:52;;;;;;;;;;;;;;;;;;4983474;28;19921;-91
2022/09/22 14:20:18;;;;;;;;;;;;;;;;;;4987090;28;20290;-93
2022/09/22 14:22:43;;;;;;;;;;;;;;;;;;4982079;28;19922;-92
2022/09/22 14:25:19;;;;;;;;;;;;;;;;;;4985044;28;20564;-90
2022/09/22 14:27:52;;;;;;;;;;;;;;;;;;4984236;28;20008;-89
2022/09/22 14:30:18;;;;;;;;;;;;;;;;;;4981466;28;20280;-90
2022/09/22 14:32:51;;;;;;;;;;;;;;;;;;4986565;28;19922;-94
2022/09/22 14:35:17;;;;;;;;;;;;;;;;;;4987918;28;21533;-92
2022/09/22 14:37:46;;;;;;;;;;;;;;;;;;4985547;28;19921;-92
2022/09/22 14:40:19;;;;;;;;;;;;;;;;;;4984971;28;19919;-89
2022/09/22 14:43:07;;;;;;;;;;;;;;;;;;4989729;28;19924;-90
2022/09/22 14:45:33;;;;;;;;;;;;;;;;;;4985434;28;20385;-84
2022/09/22 14:48:13;;;;;;;;;;;;;;;;;;4975629;28;19929;-87
2022/09/22 14:50:51;;;;;;;;;;;;;;;;;;4971319;28;20439;-85
2022/09/22 14:53:22;;;;;;;;;;;;;;;;;;4985239;28;19922;-87
2022/09/22 14:55:53;;;;;;;;;;;;;;;;;;4983573;28;19951;-88
2022/09/22 14:58:21;;;;;;;;;;;;;;;;;;4972271;28;20073;-89
2022/09/22 15:03:37;;;;;;;;;;;;;;;;;;4987984;28;19933;-87
2022/09/22 15:06:07;;;;;;;;;;;;;;;;;;4976145;28;19922;-90
2022/09/22 15:08:33;;;;;;;;;;;;;;;;;;4984925;28;19925;-91
2022/09/22 15:10:58;;;;;;;;;;;;;;;;;;4973350;28;19921;-87
2022/09/22 15:13:29;;;;;;;;;;;;;;;;;;4997229;28;19918;-90
2022/09/22 15:15:55;;;;;;;;;;;;;;;;;;4999605;28;19981;-88
2022/09/22 15:18:21;;;;;;;;;;;;;;;;;;4983951;28;19926;-88
2022/09/22 15:20:49;;;;;;;;;;;;;;;;;;4999284;28;19945;-88
2022/09/22 15:23:30;;;;;;;;;;;;;;;;;;5012856;28;19917;-83
2022/09/22 15:26:00;;;;;;;;;;;;;;;;;;4990718;28;20009;-88
2022/09/22 15:28:26;;;;;;;;;;;;;;;;;;4988233;28;19980;-90
2022/09/22 15:30:52;;;;;;;;;;;;;;;;;;4977387;28;19925;-89
2022/09/22 15:33:18;;;;;;;;;;;;;;;;;;4974162;28;20333;-84
2022/09/22 15:35:45;;;;;;;;;;;;;;;;;;4996734;28;20020;-93
2022/09/22 15:38:13;;;;;;;;;;;;;;;;;;5000202;28;19929;-85
2022/09/22 15:40:38;;;;;;;;;;;;;;;;;;4976355;28;19981;-88
2022/09/22 15:43:05;;;;;;;;;;;;;;;;;;4985380;28;20021;-94
2022/09/22 15:45:30;;;;;;;;;;;;;;;;;;4995477;28;19922;-89
2022/09/22 15:47:56;;;;;;;;;;;;;;;;;;4992392;28;19929;-91
2022/09/22 15:50:23;;;;;;;;;;;;;;;;;;4991656;28;19933;-88
2022/09/22 15:52:49;;;;;;;;;;;;;;;;;;4984934;28;19969;-82
2022/09/22 15:55:19;;;;;;;;;;;;;;;;;;4988588;28;19985;-82
2022/09/22 15:57:46;;;;;;;;;;;;;;;;;;5004385;28;19917;-83
2022/09/22 16:00:16;;;;;;;;;;;;;;;;;;4999437;28;19926;-88
2022/09/22 16:02:42;;;;;;;;;;;;;;;;;;4988603;28;19922;-82
2022/09/22 16:05:09;;;;;;;;;;;;;;;;;;4987277;28;19930;-85
2022/09/22 16:07:39;;;;;;;;;;;;;;;;;;4995736;28;19994;-88
2022/09/22 16:10:04;;;;;;;;;;;;;;;;;;4988951;28;20009;-86
2022/09/22 16:12:30;;;;;;;;;;;;;;;;;;4992197;28;20400;-86
2022/09/22 16:14:55;;;;;;;;;;;;;;;;;;4985610;28;20285;-85
2022/09/22 16:17:23;;;;;;;;;;;;;;;;;;4993775;28;20328;-87
2022/09/22 16:19:48;;;;;;;;;;;;;;;;;;4999788;28;20440;-87
2022/09/22 16:22:14;;;;;;;;;;;;;;;;;;4987614;28;19926;-90
2022/09/22 16:24:42;;;;;;;;;;;;;;;;;;4988344;28;19930;-85
2022/09/22 16:27:08;;;;;;;;;;;;;;;;;;5011221;28;19987;-89
2022/09/22 16:29:36;;;;;;;;;;;;;;;;;;4980954;28;19922;-87
2022/09/22 16:32:04;;;;;;;;;;;;;;;;;;4993248;28;19981;-83
2022/09/22 16:34:30;;;;;;;;;;;;;;;;;;4992250;28;19973;-89
2022/09/22 16:36:55;;;;;;;;;;;;;;;;;;4996244;28;20539;-90
2022/09/22 16:39:21;;;;;;;;;;;;;;;;;;4990252;28;19922;-86
2022/09/22 16:41:47;;;;;;;;;;;;;;;;;;4994931;28;19997;-88
2022/09/22 16:44:15;;;;;;;;;;;;;;;;;;4977600;28;19922;-83
2022/09/22 16:46:40;;;;;;;;;;;;;;;;;;4985522;28;19942;-94
2022/09/22 16:49:09;;;;;;;;;;;;;;;;;;4983153;28;19921;-89
2022/09/22 16:51:39;;;;;;;;;;;;;;;;;;4999174;28;19949;-83
2022/09/22 16:54:06;;;;;;;;;;;;;;;;;;4999182;28;19961;-83
2022/09/22 16:56:32;;;;;;;;;;;;;;;;;;4994757;28;19921;-82
2022/09/22 16:59:01;;;;;;;;;;;;;;;;;;4976825;28;19998;-82
2022/09/22 17:01:29;;;;;;;;;;;;;;;;;;4994722;28;19918;-82
2022/09/22 17:03:55;;;;;;;;;;;;;;;;;;4978960;28;20377;-82
2022/09/22 17:06:24;;;;;;;;;;;;;;;;;;4980298;28;19925;-87
2022/09/22 17:08:51;;;;;;;;;;;;;;;;;;4979745;28;19928;-82
2022/09/22 17:11:17;;;;;;;;;;;;;;;;;;4988441;28;20020;-81
2022/09/22 17:13:43;;;;;;;;;;;;;;;;;;5004971;28;20031;-82
2022/09/22 17:16:29;;;;;;;;;;;;;;;;;;4987647;28;19926;-83
2022/09/22 17:18:58;;;;;;;;;;;;;;;;;;5002877;28;20342;-82